createdAt,value
2023-02-27T00:01:35.107Z,6.62
2023-02-27T00:04:37.895Z,8.43
2023-02-27T00:07:41.146Z,6.10
2023-02-27T00:10:44.134Z,7.03
2023-02-27T00:13:46.799Z,5.47
2023-02-27T00:16:49.653Z,4.97
2023-02-27T00:19:52.976Z,8.07
2023-02-27T00:22:55.896Z,5.32
2023-02-27T00:26:00.991Z,4.83
2023-02-27T00:29:04.838Z,6.87
2023-02-27T00:32:07.498Z,5.93
2023-02-27T00:35:11.499Z,5.55
2023-02-27T00:38:14.286Z,7.90
2023-02-27T00:41:17.286Z,6.53
2023-02-27T00:44:19.947Z,5.32
2023-02-27T00:47:22.902Z,6.10
2023-02-27T00:50:26.370Z,4.32
2023-02-27T00:53:29.312Z,6.62
2023-02-27T00:56:32.188Z,6.43
2023-02-27T00:59:35.402Z,6.18
2023-02-27T01:02:38.990Z,5.53
2023-02-27T01:05:43.235Z,6.95
2023-02-27T01:08:45.801Z,6.03
2023-02-27T01:11:48.683Z,6.43
2023-02-27T01:14:51.368Z,5.60
2023-02-27T01:17:54.245Z,7.90
2023-02-27T01:20:57.132Z,6.78
2023-02-27T01:24:00.042Z,8.70
2023-02-27T01:27:02.620Z,5.17
2023-02-27T01:30:06.971Z,6.03
2023-02-27T01:33:10.249Z,6.05
2023-02-27T01:36:15.670Z,6.60
2023-02-27T01:39:18.478Z,5.50
2023-02-27T01:42:27.328Z,5.60
2023-02-27T01:45:31.942Z,5.93
2023-02-27T01:48:36.042Z,8.52
2023-02-27T01:51:50.958Z,5.75
2023-02-27T01:54:54.444Z,5.85
2023-02-27T01:57:57.183Z,6.27
2023-02-27T02:01:00.302Z,5.18
2023-02-27T02:04:18.120Z,5.80
2023-02-27T02:07:21.472Z,4.87
2023-02-27T02:10:24.758Z,5.47
2023-02-27T02:13:28.020Z,5.17
2023-02-27T02:17:11.105Z,4.75
2023-02-27T02:20:34.759Z,5.60
2023-02-27T02:24:15.782Z,7.37
2023-02-27T02:27:35.749Z,4.40
2023-02-27T02:31:12.738Z,4.13
2023-02-27T02:34:15.755Z,5.80
2023-02-27T02:37:52.093Z,4.65
2023-02-27T02:41:16.905Z,4.55
2023-02-27T02:44:38.365Z,5.93
2023-02-27T02:48:02.096Z,5.97
2023-02-27T02:51:09.251Z,5.75
2023-02-27T02:54:28.998Z,3.72
2023-02-27T02:57:39.017Z,5.35
2023-02-27T03:00:47.057Z,5.28
2023-02-27T03:03:55.497Z,5.67
2023-02-27T03:07:04.881Z,5.30
2023-02-27T03:10:21.621Z,6.37
2023-02-27T03:13:37.753Z,4.60
2023-02-27T03:16:43.412Z,5.45
2023-02-27T03:19:57.145Z,5.07
2023-02-27T03:23:04.987Z,5.55
2023-02-27T03:26:08.706Z,5.97
2023-02-27T03:29:17.131Z,4.75
2023-02-27T03:32:29.129Z,4.07
2023-02-27T03:36:04.797Z,5.63
2023-02-27T03:39:44.116Z,5.90
2023-02-27T03:42:53.728Z,3.80
2023-02-27T03:45:59.571Z,5.47
2023-02-27T03:49:02.312Z,4.32
2023-02-27T03:52:05.275Z,5.27
2023-02-27T03:55:08.603Z,5.07
2023-02-27T03:58:11.741Z,5.68
2023-02-27T04:01:14.654Z,6.82
2023-02-27T04:04:18.790Z,5.30
2023-02-27T04:07:48.843Z,4.57
2023-02-27T04:11:00.166Z,4.80
2023-02-27T04:14:25.594Z,6.68
2023-02-27T04:17:31.055Z,4.82
2023-02-27T04:20:51.005Z,3.90
2023-02-27T04:24:09.608Z,4.93
2023-02-27T04:27:15.155Z,4.75
2023-02-27T04:30:49.378Z,5.75
2023-02-27T04:34:16.087Z,4.45
2023-02-27T04:37:34.548Z,4.50
2023-02-27T04:40:44.047Z,4.10
2023-02-27T04:43:47.952Z,6.25
2023-02-27T04:46:51.671Z,4.72
2023-02-27T04:49:57.356Z,4.05
2023-02-27T04:53:09.963Z,4.20
2023-02-27T04:56:29.916Z,4.57
2023-02-27T04:59:39.269Z,4.95
2023-02-27T05:02:45.503Z,5.35
2023-02-27T05:05:49.012Z,3.58
2023-02-27T05:09:01.470Z,4.28
2023-02-27T05:12:11.044Z,6.20
2023-02-27T05:15:17.473Z,4.07
2023-02-27T05:18:22.018Z,5.43
2023-02-27T05:21:34.481Z,3.92
2023-02-27T05:25:08.206Z,4.80
2023-02-27T05:28:20.456Z,4.30
2023-02-27T05:32:14.927Z,6.37
2023-02-27T05:35:24.218Z,4.85
2023-02-27T05:38:48.535Z,5.72
2023-02-27T05:41:55.094Z,5.15
2023-02-27T05:45:04.203Z,5.50
2023-02-27T05:48:19.523Z,3.83
2023-02-27T05:51:25.692Z,5.03
2023-02-27T05:54:39.156Z,5.28
2023-02-27T05:57:44.601Z,4.80
2023-02-27T06:00:54.512Z,3.93
2023-02-27T06:03:58.089Z,3.92
2023-02-27T06:07:00.864Z,4.43
2023-02-27T06:10:05.454Z,4.10
2023-02-27T06:13:08.090Z,4.15
2023-02-27T06:16:13.096Z,4.77
2023-02-27T06:19:15.898Z,4.15
2023-02-27T06:22:18.725Z,5.72
2023-02-27T06:25:22.120Z,11.10
2023-02-27T06:28:25.435Z,6.70
2023-02-27T06:31:28.031Z,5.57
2023-02-27T06:34:30.898Z,4.12
2023-02-27T06:37:33.709Z,4.53
2023-02-27T06:40:38.331Z,3.15
2023-02-27T06:43:40.892Z,5.97
2023-02-27T06:46:43.749Z,3.87
2023-02-27T06:49:46.408Z,3.87
2023-02-27T06:52:49.447Z,5.15
2023-02-27T06:55:52.309Z,4.93
2023-02-27T06:58:55.161Z,5.10
2023-02-27T07:01:59.198Z,6.17
2023-02-27T07:05:08.290Z,3.17
2023-02-27T07:08:11.487Z,5.28
2023-02-27T07:11:14.480Z,5.95
2023-02-27T07:14:17.452Z,4.75
2023-02-27T07:17:20.347Z,5.23
2023-02-27T07:20:23.689Z,6.50
2023-02-27T07:23:26.555Z,5.45
2023-02-27T07:26:29.430Z,4.35
2023-02-27T07:29:32.539Z,5.97
2023-02-27T07:32:35.138Z,3.90
2023-02-27T07:35:38.000Z,4.85
2023-02-27T07:38:40.609Z,4.10
2023-02-27T07:41:43.568Z,4.50
2023-02-27T07:44:50.733Z,5.65
2023-02-27T07:47:53.641Z,4.37
2023-02-27T07:50:56.839Z,5.12
2023-02-27T07:53:59.862Z,3.42
2023-02-27T07:57:02.468Z,6.35
2023-02-27T08:00:07.517Z,5.72
2023-02-27T08:03:14.635Z,5.60
2023-02-27T08:06:17.528Z,4.57
2023-02-27T08:09:20.066Z,6.75
2023-02-27T08:12:23.042Z,5.70
2023-02-27T08:15:25.578Z,4.10
2023-02-27T08:18:28.733Z,5.13
2023-02-27T08:21:31.417Z,4.28
2023-02-27T08:24:34.249Z,6.50
2023-02-27T08:27:37.741Z,5.07
2023-02-27T08:30:41.155Z,4.70
2023-02-27T08:33:43.978Z,4.67
2023-02-27T08:36:46.780Z,4.97
2023-02-27T08:39:49.516Z,4.47
2023-02-27T08:42:52.398Z,3.87
2023-02-27T08:45:54.947Z,4.37
2023-02-27T08:48:58.312Z,6.70
2023-02-27T08:52:01.435Z,6.90
2023-02-27T08:55:04.999Z,3.87
2023-02-27T08:58:07.607Z,4.78
2023-02-27T09:01:10.511Z,5.85
2023-02-27T09:04:13.155Z,5.23
2023-02-27T09:07:15.913Z,4.47
2023-02-27T09:10:19.154Z,5.30
2023-02-27T09:13:22.349Z,5.53
2023-02-27T09:16:25.071Z,4.50
2023-02-27T09:19:28.128Z,4.60
2023-02-27T09:22:31.328Z,5.87
2023-02-27T09:25:35.037Z,8.30
2023-02-27T09:28:40.053Z,5.62
2023-02-27T09:31:42.972Z,5.75
2023-02-27T09:34:45.753Z,5.17
2023-02-27T09:37:49.657Z,5.00
2023-02-27T09:40:53.851Z,4.82
2023-02-27T09:43:56.837Z,6.65
2023-02-27T09:46:59.380Z,5.75
2023-02-27T09:50:34.125Z,4.60
2023-02-27T09:53:41.670Z,4.35
2023-02-27T09:57:05.565Z,4.90
2023-02-27T10:00:24.157Z,4.65
2023-02-27T10:03:45.485Z,4.75
2023-02-27T10:07:03.942Z,7.57
2023-02-27T10:10:28.343Z,4.28
2023-02-27T10:13:42.961Z,5.60
2023-02-27T10:16:46.735Z,6.22
2023-02-27T10:19:50.509Z,5.57
2023-02-27T10:22:54.666Z,6.53
2023-02-27T10:25:57.495Z,6.80
2023-02-27T10:29:22.914Z,5.70
2023-02-27T10:32:30.095Z,6.75
2023-02-27T10:35:38.605Z,6.62
2023-02-27T10:38:44.693Z,5.70
2023-02-27T10:41:47.861Z,5.03
2023-02-27T10:44:53.881Z,6.35
2023-02-27T10:47:57.328Z,7.07
2023-02-27T10:51:19.080Z,5.70
2023-02-27T10:54:24.306Z,6.30
2023-02-27T10:57:43.350Z,5.80
2023-02-27T11:00:54.397Z,6.12
2023-02-27T11:03:57.098Z,7.18
2023-02-27T11:07:01.784Z,5.35
2023-02-27T11:10:16.883Z,5.37
2023-02-27T11:13:21.824Z,5.80
2023-02-27T11:16:24.293Z,8.32
2023-02-27T11:19:35.332Z,6.65
2023-02-27T11:22:38.191Z,7.28
2023-02-27T11:25:41.556Z,5.77
2023-02-27T11:28:44.063Z,7.40
2023-02-27T11:31:46.807Z,6.43
2023-02-27T11:34:50.685Z,6.47
2023-02-27T11:37:55.653Z,6.37
2023-02-27T11:41:09.057Z,5.03
2023-02-27T11:44:17.081Z,6.97
2023-02-27T11:47:40.012Z,6.05
2023-02-27T11:51:10.521Z,5.97
2023-02-27T11:54:32.477Z,8.48
2023-02-27T11:57:38.561Z,6.57
2023-02-27T12:00:46.032Z,7.07
2023-02-27T12:04:05.480Z,5.07
2023-02-27T12:07:08.026Z,9.52
2023-02-27T12:10:22.189Z,7.43
2023-02-27T12:13:31.805Z,6.43
2023-02-27T12:16:39.674Z,6.87
2023-02-27T12:19:45.965Z,6.10
2023-02-27T12:22:51.917Z,7.15
2023-02-27T12:26:04.146Z,7.15
2023-02-27T12:29:40.519Z,8.60
2023-02-27T12:32:49.170Z,6.07
2023-02-27T12:35:58.549Z,6.75
2023-02-27T12:39:01.121Z,5.45
2023-02-27T12:42:17.579Z,6.18
2023-02-27T12:45:34.899Z,5.83
2023-02-27T12:49:09.489Z,6.95
2023-02-27T12:52:29.511Z,7.03
2023-02-27T12:55:36.995Z,8.50
2023-02-27T12:58:45.314Z,6.87
2023-02-27T13:01:59.901Z,8.60
2023-02-27T13:05:27.182Z,6.70
2023-02-27T13:08:43.438Z,6.62
2023-02-27T13:11:51.786Z,6.43
2023-02-27T13:15:31.440Z,5.90
2023-02-27T13:18:41.941Z,6.37
2023-02-27T13:22:16.450Z,7.80
2023-02-27T13:25:19.881Z,6.30
2023-02-27T13:28:25.951Z,7.93
2023-02-27T13:31:44.010Z,8.65
2023-02-27T13:34:50.534Z,6.20
2023-02-27T13:38:02.243Z,6.35
2023-02-27T13:41:20.348Z,9.25
2023-02-27T13:44:22.832Z,6.78
2023-02-27T13:47:31.410Z,6.07
2023-02-27T13:50:33.891Z,7.13
2023-02-27T13:53:37.204Z,5.97
2023-02-27T13:56:40.845Z,9.02
2023-02-27T13:59:52.450Z,7.78
2023-02-27T14:03:00.705Z,6.97
2023-02-27T14:06:06.169Z,7.47
2023-02-27T14:09:15.229Z,8.40
2023-02-27T14:12:45.413Z,6.35
2023-02-27T14:15:52.505Z,7.78
2023-02-27T14:18:57.933Z,8.65
2023-02-27T14:22:10.944Z,7.57
2023-02-27T14:25:18.081Z,6.03
2023-02-27T14:28:26.258Z,7.35
2023-02-27T14:31:35.320Z,7.95
2023-02-27T14:34:40.392Z,7.20
2023-02-27T14:37:43.230Z,7.63
2023-02-27T14:41:03.411Z,6.70
2023-02-27T14:44:22.692Z,8.27
2023-02-27T14:47:35.064Z,6.35
2023-02-27T14:50:40.591Z,7.30
2023-02-27T14:53:43.271Z,9.00
2023-02-27T14:57:01.062Z,5.75
2023-02-27T15:00:05.165Z,6.30
2023-02-27T15:03:17.942Z,7.43
2023-02-27T15:06:25.140Z,5.85
2023-02-27T15:09:44.595Z,6.53
2023-02-27T15:12:47.698Z,7.37
2023-02-27T15:15:52.422Z,9.13
2023-02-27T15:18:57.355Z,6.32
2023-02-27T15:22:05.169Z,9.52
2023-02-27T15:25:31.953Z,8.77
2023-02-27T15:28:38.179Z,7.20
2023-02-27T15:31:40.838Z,7.95
2023-02-27T15:34:44.588Z,7.93
2023-02-27T15:37:51.754Z,6.57
2023-02-27T15:40:56.226Z,8.70
2023-02-27T15:44:01.810Z,5.93
2023-02-27T15:47:05.254Z,5.75
2023-02-27T15:50:16.792Z,8.00
2023-02-27T15:53:21.686Z,6.62
2023-02-27T15:56:35.677Z,5.10
2023-02-27T15:59:41.188Z,4.95
2023-02-27T16:02:46.895Z,6.62
2023-02-27T16:05:52.040Z,8.68
2023-02-27T16:08:58.886Z,7.80
2023-02-27T16:12:24.440Z,7.33
2023-02-27T16:15:31.586Z,8.20
2023-02-27T16:18:36.906Z,7.82
2023-02-27T16:21:39.962Z,6.47
2023-02-27T16:24:43.857Z,6.07
2023-02-27T16:27:49.596Z,5.73
2023-02-27T16:30:53.990Z,7.18
2023-02-27T16:33:59.785Z,6.40
2023-02-27T16:37:04.681Z,7.80
2023-02-27T16:40:24.815Z,6.57
2023-02-27T16:43:28.007Z,6.73
2023-02-27T16:46:31.088Z,8.38
2023-02-27T16:49:34.119Z,9.63
2023-02-27T16:52:37.144Z,9.88
2023-02-27T16:55:41.056Z,5.57
2023-02-27T16:58:44.883Z,7.47
2023-02-27T17:01:47.904Z,8.80
2023-02-27T17:04:52.237Z,6.70
2023-02-27T17:07:55.309Z,9.07
2023-02-27T17:10:58.287Z,8.88
2023-02-27T17:14:02.356Z,8.50
2023-02-27T17:17:05.647Z,10.02
2023-02-27T17:20:10.645Z,8.90
2023-02-27T17:23:14.473Z,8.40
2023-02-27T17:26:17.568Z,9.45
2023-02-27T17:29:21.070Z,9.43
2023-02-27T17:32:24.429Z,9.82
2023-02-27T17:35:27.251Z,11.12
2023-02-27T17:38:31.014Z,7.57
2023-02-27T17:41:34.164Z,7.05
2023-02-27T17:44:37.217Z,12.73
2023-02-27T17:47:40.427Z,10.05
2023-02-27T17:50:45.489Z,8.00
2023-02-27T17:53:48.017Z,7.80
2023-02-27T17:56:51.057Z,7.72
2023-02-27T17:59:53.826Z,7.37
2023-02-27T18:02:56.894Z,9.15
2023-02-27T18:06:00.116Z,10.90
2023-02-27T18:09:06.266Z,7.53
2023-02-27T18:12:09.660Z,6.95
2023-02-27T18:15:13.532Z,10.40
2023-02-27T18:18:16.738Z,7.32
2023-02-27T18:21:20.932Z,7.43
2023-02-27T18:24:23.993Z,8.35
2023-02-27T18:27:28.086Z,8.05
2023-02-27T18:30:33.565Z,8.83
2023-02-27T18:33:36.651Z,8.40
2023-02-27T18:36:40.452Z,10.23
2023-02-27T18:39:44.450Z,8.50
2023-02-27T18:42:48.476Z,9.48
2023-02-27T18:45:51.597Z,10.77
2023-02-27T18:48:54.661Z,7.15
2023-02-27T18:51:58.648Z,11.65
2023-02-27T18:55:02.083Z,9.05
2023-02-27T18:58:06.176Z,7.70
2023-02-27T19:01:18.898Z,10.70
2023-02-27T19:04:22.777Z,10.23
2023-02-27T19:07:26.136Z,8.20
2023-02-27T19:10:30.071Z,8.52
2023-02-27T19:13:34.303Z,7.07
2023-02-27T19:16:37.318Z,7.20
2023-02-27T19:19:40.675Z,8.95
2023-02-27T19:22:43.570Z,6.93
2023-02-27T19:25:49.122Z,10.45
2023-02-27T19:28:53.977Z,9.13
2023-02-27T19:31:57.888Z,8.70
2023-02-27T19:35:00.557Z,7.05
2023-02-27T19:38:03.966Z,8.27
2023-02-27T19:41:11.057Z,9.55
2023-02-27T19:44:14.228Z,8.98
2023-02-27T19:47:17.632Z,11.20
2023-02-27T19:50:20.851Z,14.10
2023-02-27T19:53:26.463Z,9.93
2023-02-27T19:56:30.296Z,8.48
2023-02-27T19:59:33.688Z,9.65
2023-02-27T20:02:40.012Z,11.23
2023-02-27T20:05:45.509Z,8.43
2023-02-27T20:08:48.507Z,10.57
2023-02-27T20:12:00.538Z,12.00
2023-02-27T20:15:08.872Z,7.55
2023-02-27T20:18:12.256Z,9.57
2023-02-27T20:21:21.016Z,10.27
2023-02-27T20:24:25.375Z,9.65
2023-02-27T20:27:28.396Z,10.02
2023-02-27T20:30:32.012Z,12.82
2023-02-27T20:33:35.226Z,9.50
2023-02-27T20:36:39.781Z,10.18
2023-02-27T20:39:45.456Z,9.98
2023-02-27T20:42:48.626Z,10.50
2023-02-27T20:45:51.589Z,10.82
2023-02-27T20:49:03.250Z,10.23
2023-02-27T20:52:06.422Z,15.95
2023-02-27T20:55:10.061Z,11.50
2023-02-27T20:58:13.076Z,9.30
2023-02-27T21:01:17.602Z,9.15
2023-02-27T21:04:21.263Z,15.07
2023-02-27T21:07:24.621Z,8.63
2023-02-27T21:10:27.749Z,8.15
2023-02-27T21:13:30.728Z,10.88
2023-02-27T21:16:33.658Z,17.37
2023-02-27T21:19:37.868Z,12.70
2023-02-27T21:22:40.793Z,9.88
2023-02-27T21:25:44.129Z,11.00
2023-02-27T21:28:52.246Z,12.25
2023-02-27T21:31:55.373Z,9.82
2023-02-27T21:34:58.529Z,11.23
2023-02-27T21:38:01.684Z,11.25
2023-02-27T21:41:11.420Z,10.57
2023-02-27T21:44:17.002Z,10.13
2023-02-27T21:47:20.831Z,9.55
2023-02-27T21:50:23.799Z,10.87
2023-02-27T21:53:26.978Z,9.85
2023-02-27T21:56:30.590Z,10.48
2023-02-27T21:59:33.232Z,10.63
2023-02-27T22:02:36.271Z,7.78
2023-02-27T22:05:43.185Z,10.13
2023-02-27T22:08:45.742Z,9.98
2023-02-27T22:11:49.110Z,10.63
2023-02-27T22:14:51.678Z,12.63
2023-02-27T22:17:55.872Z,8.38
2023-02-27T22:20:59.535Z,11.00
2023-02-27T22:24:02.675Z,7.90
2023-02-27T22:27:05.376Z,9.75
2023-02-27T22:30:09.799Z,12.32
2023-02-27T22:33:13.030Z,10.30
2023-02-27T22:36:18.894Z,10.73
2023-02-27T22:39:21.817Z,12.80
2023-02-27T22:42:24.779Z,10.68
2023-02-27T22:45:27.418Z,10.38
2023-02-27T22:48:30.270Z,11.38
2023-02-27T22:51:33.231Z,12.33
2023-02-27T22:54:36.578Z,10.30
2023-02-27T22:57:39.277Z,12.40
2023-02-27T23:00:42.293Z,13.98
2023-02-27T23:03:46.527Z,13.60
2023-02-27T23:06:52.456Z,14.03
2023-02-27T23:09:55.280Z,17.45
2023-02-27T23:12:58.264Z,14.05
2023-02-27T23:16:01.828Z,13.65
2023-02-27T23:19:04.960Z,14.13
2023-02-27T23:22:08.721Z,14.23
2023-02-27T23:25:11.890Z,10.48
2023-02-27T23:28:14.492Z,13.23
2023-02-27T23:31:17.394Z,16.98
2023-02-27T23:34:20.037Z,16.02
2023-02-27T23:37:22.874Z,16.77
2023-02-27T23:40:27.526Z,18.25
2023-02-27T23:43:48.879Z,12.63
2023-02-27T23:46:51.376Z,17.35
2023-02-27T23:49:54.283Z,15.95
2023-02-27T23:52:58.994Z,14.80
2023-02-27T23:56:15.060Z,14.10
2023-02-27T23:59:17.619Z,15.68
